Time;durP1;ratioP1;P1;durP2;ratioP2;P2;SDS_P1;SDS_P2;PMS_P1;PMS_P2;Temp;Humidity;BMP_temperature;BMP_pressure;BME280_temperature;BME280_humidity;BME280_pressure;Samples;Min_cycle;Max_cycle;Signal;HPM_P1;HPM_P2
2023/04/13 00:01:12;;;;;;;10.23;2.53;;;;;;;5.87;100.00;99150.28;5038412;28;20044;-81
2023/04/13 00:03:38;;;;;;;7.57;2.63;;;;;;;5.92;100.00;99148.19;5030835;28;20524;-83
2023/04/13 00:06:05;;;;;;;8.68;2.53;;;;;;;5.94;100.00;99151.59;5012541;28;20138;-84
2023/04/13 00:08:34;;;;;;;5.25;2.45;;;;;;;5.94;100.00;99146.28;5017809;28;20075;-84
2023/04/13 00:11:01;;;;;;;8.55;2.60;;;;;;;5.98;100.00;99147.81;5043762;28;20029;-85
2023/04/13 00:13:27;;;;;;;6.22;3.20;;;;;;;5.93;100.00;99134.00;5025228;28;20067;-84
2023/04/13 00:15:54;;;;;;;7.85;2.38;;;;;;;5.96;100.00;99134.69;5041566;28;20041;-83
2023/04/13 00:18:20;;;;;;;8.48;3.30;;;;;;;5.96;100.00;99136.47;5048100;28;20032;-85
2023/04/13 00:20:47;;;;;;;4.32;2.30;;;;;;;6.01;100.00;99142.34;5031983;28;20033;-85
2023/04/13 00:23:13;;;;;;;6.07;3.05;;;;;;;6.05;100.00;99138.53;5011660;28;20060;-82
2023/04/13 00:25:39;;;;;;;6.03;3.13;;;;;;;6.09;100.00;99136.53;5019503;28;20056;-84
2023/04/13 00:28:06;;;;;;;6.25;2.80;;;;;;;6.11;100.00;99143.44;5008963;28;20065;-84
2023/04/13 00:30:33;;;;;;;4.68;2.50;;;;;;;6.13;100.00;99144.22;5042082;28;20469;-85
2023/04/13 00:33:00;;;;;;;6.80;2.53;;;;;;;6.12;100.00;99134.56;5013524;28;20024;-84
2023/04/13 00:35:27;;;;;;;5.85;2.90;;;;;;;6.15;100.00;99123.75;5013936;28;20029;-84
2023/04/13 00:37:54;;;;;;;6.70;2.65;;;;;;;6.16;100.00;99127.25;5042948;28;20397;-84
2023/04/13 00:40:23;;;;;;;4.82;2.50;;;;;;;6.18;100.00;99135.94;5029790;28;20383;-83
2023/04/13 00:42:50;;;;;;;7.57;2.90;;;;;;;6.20;100.00;99131.41;5000692;28;20361;-85
2023/04/13 00:45:17;;;;;;;5.95;2.80;;;;;;;6.21;100.00;99130.47;5042828;28;20025;-81
2023/04/13 00:47:47;;;;;;;9.38;3.45;;;;;;;6.17;100.00;99127.16;5008562;28;20040;-83
2023/04/13 00:50:15;;;;;;;5.60;2.95;;;;;;;6.16;100.00;99116.66;5045248;28;20040;-83
2023/04/13 00:52:42;;;;;;;4.30;2.85;;;;;;;6.14;100.00;99119.41;5017808;28;20420;-83
2023/04/13 00:55:08;;;;;;;7.60;3.13;;;;;;;6.12;100.00;99123.13;5020270;28;20664;-83
2023/04/13 00:57:39;;;;;;;6.45;3.30;;;;;;;6.14;100.00;99127.34;5037581;28;20037;-83
2023/04/13 01:00:08;;;;;;;5.63;3.13;;;;;;;6.13;100.00;99117.72;4996255;28;20399;-85
2023/04/13 01:02:35;;;;;;;6.40;2.97;;;;;;;6.14;100.00;99113.25;5027791;28;20303;-85
2023/04/13 01:05:02;;;;;;;5.97;3.00;;;;;;;6.13;100.00;99115.06;5017728;28;20277;-84
2023/04/13 01:07:55;;;;;;;5.95;4.07;;;;;;;6.16;100.00;99120.16;5007901;28;20438;-83
2023/04/13 01:10:34;;;;;;;7.07;2.95;;;;;;;6.14;100.00;99127.34;5013217;28;20401;-84
2023/04/13 01:13:19;;;;;;;5.20;3.45;;;;;;;6.20;100.00;99126.09;5044250;28;20104;-84
2023/04/13 01:16:18;;;;;;;6.43;3.58;;;;;;;6.20;100.00;99129.59;5009586;28;20060;-84
2023/04/13 01:18:48;;;;;;;7.45;4.28;;;;;;;6.20;100.00;99131.41;4997380;28;20025;-83
2023/04/13 01:21:19;;;;;;;10.13;4.25;;;;;;;6.20;100.00;99132.25;4996583;28;20032;-84
2023/04/13 01:24:01;;;;;;;7.40;3.97;;;;;;;6.27;100.00;99134.53;4996604;28;20045;-84
2023/04/13 01:26:47;;;;;;;7.00;4.25;;;;;;;6.28;100.00;99138.84;5029175;28;20118;-83
2023/04/13 01:29:16;;;;;;;6.55;3.90;;;;;;;6.26;100.00;99141.59;5014663;28;20148;-83
2023/04/13 01:31:42;;;;;;;6.35;4.10;;;;;;;6.28;100.00;99144.16;5016452;28;20085;-83
2023/04/13 01:34:09;;;;;;;9.77;4.78;;;;;;;6.31;100.00;99144.81;5017046;28;20033;-84
2023/04/13 01:36:36;;;;;;;8.10;4.03;;;;;;;6.30;100.00;99136.94;4999191;28;20029;-84
2023/04/13 01:39:03;;;;;;;8.60;4.15;;;;;;;6.31;100.00;99144.81;5011525;28;20041;-83
2023/04/13 01:41:30;;;;;;;9.43;4.20;;;;;;;6.29;100.00;99156.47;5012840;28;20401;-83
2023/04/13 01:43:58;;;;;;;5.88;3.78;;;;;;;6.26;100.00;99154.00;5018188;28;20032;-84
2023/04/13 01:46:29;;;;;;;6.88;4.53;;;;;;;6.30;100.00;99156.38;5014623;28;20029;-83
2023/04/13 01:49:03;;;;;;;5.90;3.95;;;;;;;6.29;100.00;99165.25;4998944;28;20068;-83
2023/04/13 01:51:44;;;;;;;6.15;3.95;;;;;;;6.31;100.00;99170.47;5027342;28;20044;-83
2023/04/13 01:54:19;;;;;;;7.10;4.10;;;;;;;6.34;100.00;99167.63;5016840;28;20458;-83
2023/04/13 01:56:47;;;;;;;6.07;4.13;;;;;;;6.37;100.00;99176.22;5012532;28;20448;-82
2023/04/13 01:59:15;;;;;;;9.95;3.85;;;;;;;6.37;100.00;99176.22;5006016;28;20037;-84
2023/04/13 02:01:42;;;;;;;8.20;4.20;;;;;;;6.37;100.00;99180.66;4997730;28;20083;-84
2023/04/13 02:04:09;;;;;;;8.50;4.25;;;;;;;6.35;100.00;99180.75;4992314;28;20044;-85
2023/04/13 02:06:38;;;;;;;7.88;4.47;;;;;;;6.34;100.00;99180.88;5007787;28;20033;-83
2023/04/13 02:09:06;;;;;;;6.78;3.92;;;;;;;6.35;100.00;99190.50;5009051;28;20216;-83
2023/04/13 02:11:33;;;;;;;7.10;4.13;;;;;;;6.39;100.00;99189.34;5018094;28;20029;-85
2023/04/13 02:14:02;;;;;;;8.88;4.00;;;;;;;6.38;100.00;99199.13;5049405;28;20040;-83
2023/04/13 02:16:29;;;;;;;8.48;3.75;;;;;;;6.38;100.00;99203.56;5012014;28;20035;-84
2023/04/13 02:18:57;;;;;;;9.63;3.92;;;;;;;6.39;100.00;99205.25;5014723;28;20086;-84
2023/04/13 02:21:24;;;;;;;6.35;3.58;;;;;;;6.40;100.00;99212.28;5023879;28;20478;-84
2023/04/13 02:23:53;;;;;;;6.05;3.42;;;;;;;6.37;100.00;99223.94;5036797;28;20037;-85
2023/04/13 02:26:22;;;;;;;8.48;4.03;;;;;;;6.41;100.00;99224.56;5040214;28;20104;-85
2023/04/13 02:28:50;;;;;;;9.43;3.80;;;;;;;6.35;100.00;99232.91;5022336;28;20154;-83
2023/04/13 02:31:18;;;;;;;14.50;4.47;;;;;;;6.19;100.00;99231.25;4990603;28;20106;-84
2023/04/13 02:33:47;;;;;;;10.43;4.05;;;;;;;6.11;100.00;99233.50;5025739;28;20041;-84
2023/04/13 02:36:16;;;;;;;9.48;4.60;;;;;;;6.12;100.00;99229.94;5041962;28;20029;-84
2023/04/13 02:38:50;;;;;;;9.38;3.75;;;;;;;6.15;100.00;99239.47;5019332;28;20068;-84
2023/04/13 02:41:28;;;;;;;8.68;4.28;;;;;;;6.14;100.00;99246.56;4982136;28;20040;-84
2023/04/13 02:43:56;;;;;;;9.98;4.30;;;;;;;6.09;100.00;99251.31;4996188;28;20041;-83
2023/04/13 02:46:25;;;;;;;9.52;3.63;;;;;;;6.00;100.00;99249.22;5015958;28;20029;-84
2023/04/13 02:48:59;;;;;;;9.77;3.28;;;;;;;5.93;100.00;99250.53;5015153;28;20060;-83
2023/04/13 02:51:29;;;;;;;10.52;4.15;;;;;;;5.82;100.00;99265.28;5028900;28;20029;-83
2023/04/13 02:53:55;;;;;;;13.38;4.55;;;;;;;5.83;100.00;99266.13;5018435;28;20032;-83
2023/04/13 02:56:22;;;;;;;10.10;3.90;;;;;;;5.80;100.00;99275.13;5034828;28;20718;-85
2023/04/13 02:58:55;;;;;;;13.95;3.97;;;;;;;5.76;100.00;99264.78;5030268;28;20464;-84
2023/04/13 03:01:23;;;;;;;11.68;4.07;;;;;;;5.71;100.00;99275.69;5013159;28;20048;-83
2023/04/13 03:03:50;;;;;;;11.27;4.20;;;;;;;5.67;100.00;99276.81;5001877;28;20039;-83
2023/04/13 03:06:17;;;;;;;9.80;3.78;;;;;;;5.67;100.00;99275.97;5002431;28;20033;-83
2023/04/13 03:08:46;;;;;;;10.02;4.13;;;;;;;5.62;100.00;99282.38;4987567;28;20036;-83
2023/04/13 03:11:25;;;;;;;13.00;4.22;;;;;;;5.58;100.00;99282.66;5019575;28;20065;-83
2023/04/13 03:14:19;;;;;;;7.60;4.25;;;;;;;5.54;100.00;99287.28;5016932;28;20079;-83
2023/04/13 03:16:50;;;;;;;9.65;4.53;;;;;;;5.61;100.00;99304.50;5043126;28;20033;-84
2023/04/13 03:19:18;;;;;;;13.95;5.43;;;;;;;5.62;100.00;99300.91;5035313;28;20041;-84
2023/04/13 03:21:46;;;;;;;10.57;4.07;;;;;;;5.59;100.00;99297.59;5005217;28;20131;-83
2023/04/13 03:24:18;;;;;;;12.13;4.40;;;;;;;5.61;100.00;99304.50;5001311;28;20037;-83
2023/04/13 03:26:44;;;;;;;13.00;4.45;;;;;;;5.61;100.00;99303.66;5017219;28;20383;-83
2023/04/13 03:29:15;;;;;;;12.13;4.43;;;;;;;5.62;100.00;99310.66;5003097;28;20102;-83
2023/04/13 03:31:44;;;;;;;8.68;4.07;;;;;;;5.63;100.00;99312.38;4999295;28;20036;-83
2023/04/13 03:34:11;;;;;;;15.85;4.80;;;;;;;5.67;100.00;99319.19;5013762;28;20509;-84
2023/04/13 03:36:39;;;;;;;15.13;5.13;;;;;;;5.69;100.00;99316.44;5032929;28;20044;-85
2023/04/13 03:39:06;;;;;;;14.48;4.90;;;;;;;5.75;100.00;99324.00;5021346;28;20076;-85
2023/04/13 03:41:36;;;;;;;18.03;5.50;;;;;;;5.83;100.00;99325.25;5030664;28;20021;-83
2023/04/13 03:44:03;;;;;;;17.25;4.68;;;;;;;5.95;100.00;99333.41;5017831;28;20054;-83
2023/04/13 03:46:36;;;;;;;15.63;4.57;;;;;;;6.00;100.00;99336.63;5001131;28;20112;-85
2023/04/13 03:49:10;;;;;;;14.60;5.05;;;;;;;6.06;100.00;99332.78;5013723;28;20601;-84
2023/04/13 03:51:37;;;;;;;13.20;3.92;;;;;;;6.11;100.00;99341.28;4996806;28;20087;-84
2023/04/13 03:54:04;;;;;;;10.27;4.68;;;;;;;6.15;100.00;99342.81;5013411;28;20116;-85
2023/04/13 03:56:31;;;;;;;13.27;4.10;;;;;;;6.15;100.00;99341.03;5019277;28;20284;-84
2023/04/13 03:58:58;;;;;;;14.45;3.33;;;;;;;6.15;100.00;99346.31;5035150;28;20064;-84
2023/04/13 04:01:26;;;;;;;10.15;3.30;;;;;;;6.17;100.00;99355.03;5014617;28;20029;-84
2023/04/13 04:03:55;;;;;;;19.10;3.90;;;;;;;6.17;100.00;99359.50;5015134;28;20053;-85
2023/04/13 04:06:23;;;;;;;13.25;3.50;;;;;;;6.15;100.00;99354.28;4982610;28;20521;-84
2023/04/13 04:09:04;;;;;;;11.77;4.03;;;;;;;6.12;100.00;99357.09;5018588;28;20033;-84
2023/04/13 04:11:35;;;;;;;;;;;;;;;6.16;100.00;99363.91;5005493;28;20033;-84
2023/04/13 04:14:02;;;;;;;14.65;3.72;;;;;;;6.12;100.00;99362.41;5011998;28;19956;-85
2023/04/13 04:16:29;;;;;;;15.10;4.38;;;;;;;6.11;100.00;99368.63;4995535;28;20357;-84
2023/04/13 04:19:03;;;;;;;21.95;4.55;;;;;;;6.13;100.00;99363.25;5009730;28;20511;-84
2023/04/13 04:21:33;;;;;;;11.57;3.53;;;;;;;6.19;100.00;99374.34;5023193;28;20029;-84
2023/04/13 04:24:04;;;;;;;13.80;2.92;;;;;;;6.21;100.00;99372.44;5015264;28;20360;-84
2023/04/13 04:26:32;;;;;;;;;;;;;;;6.27;100.00;99381.81;5029815;28;20029;-83
2023/04/13 04:29:03;;;;;;;14.45;4.13;;;;;;;6.29;100.00;99384.38;5021809;28;19925;-82
2023/04/13 04:31:34;;;;;;;12.65;2.92;;;;;;;6.33;100.00;99391.19;5011173;28;20400;-85
2023/04/13 04:34:02;;;;;;;;;;;;;;;6.37;100.00;99384.75;5017329;28;20037;-83
2023/04/13 04:36:32;;;;;;;20.27;3.83;;;;;;;6.37;100.00;99392.69;5001955;28;20007;-84
2023/04/13 04:39:01;;;;;;;13.15;3.20;;;;;;;6.38;100.00;99394.41;5016600;28;20045;-84
2023/04/13 04:41:30;;;;;;;16.40;3.75;;;;;;;6.40;100.00;99403.13;4999605;28;20092;-83
2023/04/13 04:44:02;;;;;;;15.65;3.40;;;;;;;6.42;100.00;99408.34;5000769;28;20033;-82
2023/04/13 04:46:37;;;;;;;17.98;4.47;;;;;;;6.45;100.00;99416.09;5030546;28;20037;-83
2023/04/13 04:49:05;;;;;;;16.02;4.28;;;;;;;6.44;100.00;99406.44;5000408;28;20718;-82
2023/04/13 04:51:32;;;;;;;12.77;3.58;;;;;;;6.38;100.00;99405.03;5040627;28;20056;-83
2023/04/13 04:54:01;;;;;;;16.02;5.10;;;;;;;6.35;100.00;99407.84;5007765;28;20052;-81
2023/04/13 04:56:28;;;;;;;17.25;4.97;;;;;;;6.32;100.00;99413.34;5025925;28;20103;-81
2023/04/13 04:58:54;;;;;;;12.68;4.53;;;;;;;6.26;100.00;99411.06;5026372;28;20025;-82
2023/04/13 05:01:26;;;;;;;14.90;3.85;;;;;;;6.23;100.00;99411.25;5009270;28;20048;-82
2023/04/13 05:04:01;;;;;;;13.63;4.05;;;;;;;6.20;100.00;99423.72;5019919;28;20048;-81
2023/04/13 05:06:33;;;;;;;17.40;3.97;;;;;;;6.25;100.00;99425.28;5011894;28;20504;-81
2023/04/13 05:09:01;;;;;;;19.83;5.57;;;;;;;6.32;100.00;99431.91;5016036;28;20269;-81
2023/04/13 05:11:29;;;;;;;12.93;3.72;;;;;;;6.18;100.00;99388.50;5017650;28;20033;-82
2023/04/13 05:13:58;;;;;;;17.38;4.35;;;;;;;6.63;100.00;99441.47;5012032;28;20033;-80
2023/04/13 05:16:29;;;;;;;16.42;3.70;;;;;;;6.73;100.00;99441.78;5028680;28;20037;-81
2023/04/13 05:18:56;;;;;;;10.45;3.03;;;;;;;6.72;100.00;99446.22;5030874;28;20705;-81
2023/04/13 05:21:43;;;;;;;12.88;3.15;;;;;;;6.69;100.00;99445.53;5005773;28;20045;-81
2023/04/13 05:24:10;;;;;;;15.68;2.83;;;;;;;6.64;100.00;99451.16;5031201;28;20119;-82
2023/04/13 05:26:38;;;;;;;13.40;3.45;;;;;;;6.59;100.00;99450.56;5032761;28;20056;-83
2023/04/13 05:29:06;;;;;;;11.88;3.15;;;;;;;6.59;100.00;99459.38;4999664;28;20040;-83
2023/04/13 05:31:36;;;;;;;11.00;3.13;;;;;;;6.58;100.00;99459.47;5017293;28;20029;-84
2023/04/13 05:34:03;;;;;;;10.27;3.22;;;;;;;6.58;100.00;99460.31;5033186;28;20298;-84
2023/04/13 05:36:30;;;;;;;11.57;2.70;;;;;;;6.59;100.00;99451.41;5016510;28;20430;-84
2023/04/13 05:39:00;;;;;;;13.27;3.28;;;;;;;6.56;100.00;99467.53;5019430;28;20040;-84
2023/04/13 05:41:27;;;;;;;10.20;2.78;;;;;;;6.54;100.00;99469.41;4981671;28;20119;-84
2023/04/13 05:43:54;;;;;;;11.02;3.17;;;;;;;6.57;100.00;99466.56;5030618;28;20032;-83
2023/04/13 05:46:21;;;;;;;10.68;3.40;;;;;;;6.64;100.00;99479.47;5014281;28;20036;-84
2023/04/13 05:48:48;;;;;;;9.48;2.85;;;;;;;6.71;100.00;99486.06;5014978;28;20036;-81
2023/04/13 05:51:15;;;;;;;6.38;2.80;;;;;;;6.74;100.00;99486.75;5030206;28;20429;-81
2023/04/13 05:53:45;;;;;;;8.10;2.97;;;;;;;6.70;100.00;99484.38;5012423;28;20037;-81
2023/04/13 05:56:12;;;;;;;17.15;3.85;;;;;;;6.62;100.00;99489.28;5037313;28;20041;-82
2023/04/13 05:58:39;;;;;;;12.63;3.33;;;;;;;6.68;100.00;99502.19;5004731;28;20044;-82
2023/04/13 06:01:18;;;;;;;11.95;3.58;;;;;;;6.70;100.00;99495.84;5030612;28;20033;-82
2023/04/13 06:03:45;;;;;;;11.80;3.55;;;;;;;6.76;100.00;99499.91;5013911;28;20049;-83
2023/04/13 06:06:12;;;;;;;9.82;3.53;;;;;;;6.83;100.00;99506.56;5018441;28;20142;-82
2023/04/13 06:08:39;;;;;;;11.88;3.25;;;;;;;6.87;100.00;99508.06;5034517;28;20121;-82
2023/04/13 06:11:05;;;;;;;12.65;3.30;;;;;;;6.95;100.00;99511.13;5003665;28;20047;-82
2023/04/13 06:13:32;;;;;;;9.70;3.20;;;;;;;6.99;100.00;99512.63;5028991;28;20082;-81
2023/04/13 06:15:59;;;;;;;12.35;4.15;;;;;;;7.06;100.00;99517.53;5042458;28;20036;-82
2023/04/13 06:18:25;;;;;;;14.07;3.50;;;;;;;7.05;100.00;99515.84;5017729;28;20717;-82
2023/04/13 06:20:53;;;;;;;12.20;3.08;;;;;;;7.11;100.00;99526.09;5002324;28;20049;-81
2023/04/13 06:23:21;;;;;;;11.95;3.10;;;;;;;7.24;100.00;99529.66;5052193;28;20029;-82
2023/04/13 06:25:50;;;;;;;8.57;3.47;;;;;;;7.25;100.00;99520.78;5020809;28;20519;-81
2023/04/13 06:28:27;;;;;;;9.35;2.45;;;;;;;7.19;100.00;99531.75;5005129;28;20040;-81
2023/04/13 06:30:55;;;;;;;11.75;2.90;;;;;;;7.16;100.00;99531.97;5019839;28;20053;-81
2023/04/13 06:33:22;;;;;;;10.13;2.25;;;;;;;7.26;100.00;99543.69;5015411;28;20038;-82
2023/04/13 06:35:51;;;;;;;6.35;2.47;;;;;;;7.43;100.00;99545.28;5020811;28;20043;-80
2023/04/13 06:38:18;;;;;;;7.75;2.72;;;;;;;7.50;100.00;99562.53;5018902;28;20033;-80
2023/04/13 06:40:53;;;;;;;12.80;2.45;;;;;;;7.58;100.00;99554.09;5037206;28;20559;-80
2023/04/13 06:43:19;;;;;;;12.30;3.15;;;;;;;7.58;100.00;99551.44;5052454;28;20049;-82
2023/04/13 06:46:01;;;;;;;14.57;3.55;;;;;;;7.68;100.00;99562.31;5035152;28;20041;-80
2023/04/13 06:48:30;;;;;;;13.55;2.95;;;;;;;7.79;100.00;99558.97;5019438;28;20029;-82
2023/04/13 06:50:59;;;;;;;10.77;2.92;;;;;;;7.90;100.00;99559.13;5035716;28;20156;-82
2023/04/13 06:53:26;;;;;;;14.18;2.63;;;;;;;7.90;100.00;99575.06;4985131;28;20040;-81
2023/04/13 06:55:53;;;;;;;11.73;2.53;;;;;;;7.76;100.00;99603.38;5008394;28;20032;-81
2023/04/13 06:58:20;;;;;;;8.43;2.60;;;;;;;7.52;100.00;99586.34;5036792;28;20124;-82
2023/04/13 07:00:48;;;;;;;12.27;2.90;;;;;;;7.36;100.00;99584.66;5019482;28;20029;-82
2023/04/13 07:03:15;;;;;;;10.60;2.53;;;;;;;7.39;100.00;99594.22;5013901;28;20109;-82
2023/04/13 07:05:43;;;;;;;14.57;2.90;;;;;;;7.48;100.00;99590.16;5015944;28;20052;-82
2023/04/13 07:08:13;;;;;;;10.20;3.15;;;;;;;7.66;100.00;99590.78;5016894;28;20083;-82
2023/04/13 07:10:42;;;;;;;18.92;3.08;;;;;;;7.95;100.00;99605.72;5003375;28;20033;-82
2023/04/13 07:13:25;;;;;;;20.80;3.75;;;;;;;8.01;100.00;99615.09;5004967;28;20036;-83
2023/04/13 07:15:52;;;;;;;12.90;3.63;;;;;;;7.94;100.00;99621.78;5035354;28;20033;-83
2023/04/13 07:18:19;;;;;;;14.98;2.72;;;;;;;7.85;100.00;99623.22;5035473;28;20028;-82
2023/04/13 07:20:47;;;;;;;15.93;4.43;;;;;;;7.74;100.00;99626.53;5002661;28;20036;-81
2023/04/13 07:23:14;;;;;;;13.77;2.63;;;;;;;7.50;100.00;99612.16;5034080;28;20524;-81
2023/04/13 07:25:40;;;;;;;14.77;3.35;;;;;;;7.55;100.00;99615.38;5031937;28;20053;-81
2023/04/13 07:28:15;;;;;;;14.20;3.67;;;;;;;7.76;100.00;99627.28;5019192;28;20033;-80
2023/04/13 07:30:45;;;;;;;14.48;2.90;;;;;;;7.95;100.00;99628.78;5012993;28;20037;-82
2023/04/13 07:33:12;;;;;;;;;;;;;;;8.11;100.00;99629.50;4995140;28;20089;-79
2023/04/13 07:35:39;;;;;;;17.70;3.22;;;;;;;8.23;100.00;99632.31;5010633;28;20303;-80
2023/04/13 07:38:06;;;;;;;17.15;3.20;;;;;;;8.32;100.00;99637.03;4979102;28;20426;-82
2023/04/13 07:40:34;;;;;;;17.38;2.78;;;;;;;8.37;100.00;99642.94;4990411;28;20678;-81
2023/04/13 07:43:04;;;;;;;19.33;3.13;;;;;;;8.33;100.00;99636.06;4978083;28;20056;-80
2023/04/13 07:45:35;;;;;;;21.92;3.85;;;;;;;8.41;100.00;99646.25;4980851;28;20043;-80
2023/04/13 07:48:02;;;;;;;17.60;3.35;;;;;;;8.61;100.00;99659.09;5011663;28;20052;-81
2023/04/13 07:50:29;;;;;;;22.73;4.43;;;;;;;8.95;100.00;99658.66;5014028;28;20102;-80
2023/04/13 07:52:55;;;;;;;20.08;3.38;;;;;;;9.34;100.00;99651.53;4996844;28;20049;-80
2023/04/13 07:55:23;;;;;;;23.63;3.97;;;;;;;9.68;100.00;99666.88;4997370;28;20286;-81
2023/04/13 07:57:51;;;;;;;18.88;4.25;;;;;;;9.84;100.00;99660.44;4995494;28;20128;-81
2023/04/13 08:00:19;;;;;;;26.83;3.40;;;;;;;9.65;100.00;99677.78;5012850;28;20045;-80
2023/04/13 08:02:48;;;;;;;22.20;3.78;;;;;;;9.83;100.00;99664.09;5013049;28;20498;-82
2023/04/13 08:05:20;;;;;;;23.08;3.33;;;;;;;9.84;100.00;99681.78;5016255;28;20417;-80
2023/04/13 08:07:48;;;;;;;23.75;3.40;;;;;;;9.78;100.00;99685.72;5000756;28;20044;-81
2023/04/13 08:10:15;;;;;;;17.08;4.05;;;;;;;9.84;100.00;99697.78;5033406;28;20029;-81
2023/04/13 08:12:42;;;;;;;23.13;4.50;;;;;;;9.81;100.00;99708.66;5014148;28;20032;-82
2023/04/13 08:15:09;;;;;;;20.67;3.17;;;;;;;9.77;100.00;99702.69;4997837;28;20034;-82
2023/04/13 08:17:35;;;;;;;19.58;3.10;;;;;;;9.96;100.00;99728.91;5013513;28;20044;-80
2023/04/13 08:20:05;;;;;;;21.52;3.17;;;;;;;10.52;100.00;99719.63;4986723;28;20052;-80
2023/04/13 08:22:31;;;;;;;17.00;3.42;;;;;;;10.70;100.00;99730.75;5005075;28;20226;-80
2023/04/13 08:24:57;;;;;;;23.83;5.18;;;;;;;10.51;100.00;99739.28;4998129;28;20037;-80
2023/04/13 08:27:24;;;;;;;16.20;2.75;;;;;;;10.21;100.00;99748.50;5033752;28;20409;-80
2023/04/13 08:29:55;;;;;;;20.05;3.55;;;;;;;10.11;100.00;99752.78;5033916;28;20063;-80
2023/04/13 08:32:21;;;;;;;16.17;2.97;;;;;;;9.90;100.00;99746.19;5032779;28;20044;-81
2023/04/13 08:34:50;;;;;;;16.23;2.95;;;;;;;9.78;100.00;99757.69;5017559;28;20052;-80
2023/04/13 08:37:16;;;;;;;26.38;3.47;;;;;;;9.59;100.00;99758.13;4997288;28;20039;-80
2023/04/13 08:39:44;;;;;;;16.42;2.92;;;;;;;9.53;100.00;99771.03;4998736;28;20041;-79
2023/04/13 08:42:12;;;;;;;18.00;3.42;;;;;;;9.51;100.00;99779.97;5016106;28;20048;-80
2023/04/13 08:44:39;;;;;;;16.95;3.15;;;;;;;9.63;100.00;99780.91;5017026;28;20503;-80
2023/04/13 08:47:05;;;;;;;13.13;2.75;;;;;;;9.60;100.00;99791.81;5020855;28;20033;-79
2023/04/13 08:49:34;;;;;;;18.55;2.75;;;;;;;9.61;100.00;99785.50;5016301;28;20037;-81
2023/04/13 08:52:18;;;;;;;16.08;3.45;;;;;;;9.83;100.00;99789.38;5022492;28;20040;-80
2023/04/13 08:54:49;;;;;;;15.47;3.30;;;;;;;10.00;100.00;99789.03;5018157;28;20033;-80
2023/04/13 08:57:22;;;;;;;20.77;3.50;;;;;;;10.00;100.00;99807.72;5002568;28;20401;-80
2023/04/13 08:59:52;;;;;;;14.32;3.10;;;;;;;10.12;100.00;99810.47;5001571;28;20087;-80
2023/04/13 09:02:24;;;;;;;18.90;3.00;;;;;;;10.32;100.00;99812.63;5034477;28;20465;-80
2023/04/13 09:04:58;;;;;;;17.27;3.30;;;;;;;10.38;100.00;99822.88;5021819;28;20471;-80
2023/04/13 09:07:29;;;;;;;19.43;3.23;;;;;;;10.49;100.00;99819.44;5014766;28;20030;-78
2023/04/13 09:10:00;;;;;;;25.60;3.60;;;;;;;10.48;100.00;99823.91;5016882;28;20295;-79
2023/04/13 09:12:28;;;;;;;18.17;3.45;;;;;;;10.81;100.00;99830.47;5013454;28;20057;-80
2023/04/13 09:14:54;;;;;;;18.67;3.47;;;;;;;10.98;100.00;99839.06;4981132;28;20382;-79
2023/04/13 09:17:33;;;;;;;19.95;3.88;;;;;;;11.17;100.00;99830.56;5014081;28;20041;-79
2023/04/13 09:20:14;;;;;;;15.57;3.60;;;;;;;12.05;100.00;99840.00;4998512;28;20037;-79
2023/04/13 09:22:41;;;;;;;18.15;3.17;;;;;;;12.63;100.00;99855.97;5033017;28;20072;-80
2023/04/13 09:25:23;;;;;;;11.80;3.15;;;;;;;12.94;100.00;99849.00;5033494;28;20043;-81
2023/04/13 09:27:53;;;;;;;18.10;3.70;;;;;;;12.48;100.00;99861.56;5033176;28;20036;-80
2023/04/13 09:30:21;;;;;;;22.77;2.80;;;;;;;12.01;100.00;99864.28;5033549;28;20381;-80
2023/04/13 09:32:48;;;;;;;16.63;2.70;;;;;;;11.83;100.00;99868.34;5033391;28;20567;-80
2023/04/13 09:35:14;;;;;;;13.02;2.40;;;;;;;11.45;100.00;99864.09;5051188;28;20427;-80
2023/04/13 09:37:41;;;;;;;15.73;3.38;;;;;;;11.25;100.00;99869.06;5051806;28;20080;-80
2023/04/13 09:40:15;;;;;;;17.23;3.08;;;;;;;11.92;100.00;99882.88;5032721;28;20576;-81
2023/04/13 09:42:55;;;;;;;16.48;3.58;;;;;;;12.76;100.00;99883.47;5013237;28;20041;-80
2023/04/13 09:45:21;;;;;;;15.43;2.88;;;;;;;13.31;100.00;99879.03;5012649;28;20037;-81
2023/04/13 09:47:47;;;;;;;18.40;3.25;;;;;;;13.64;100.00;99895.13;5032956;28;20037;-80
2023/04/13 09:50:20;;;;;;;13.50;2.38;;;;;;;13.25;100.00;99900.06;5031538;28;20425;-80
2023/04/13 09:52:57;;;;;;;21.08;2.50;;;;;;;13.07;100.00;99900.59;5013020;28;20083;-80
2023/04/13 09:55:23;;;;;;;14.38;2.53;;;;;;;13.02;100.00;99910.84;5016509;28;20090;-80
2023/04/13 09:57:51;;;;;;;22.42;3.10;;;;;;;12.69;100.00;99907.22;4996764;28;20044;-81
2023/04/13 10:00:20;;;;;;;15.02;2.72;;;;;;;12.20;100.00;99913.72;5013401;28;20057;-81
2023/04/13 10:02:51;;;;;;;18.35;2.85;;;;;;;11.88;100.00;99929.53;5013089;28;20520;-81
2023/04/13 10:05:19;;;;;;;17.02;2.70;;;;;;;11.49;100.00;99928.84;5031400;28;20072;-82
2023/04/13 10:07:46;;;;;;;14.82;3.33;;;;;;;11.23;100.00;99934.28;5016164;28;20029;-81
2023/04/13 10:10:12;;;;;;;16.42;2.78;;;;;;;11.25;100.00;99932.34;5032925;28;20094;-80
2023/04/13 10:12:43;;;;;;;13.88;2.65;;;;;;;11.15;100.00;99936.66;5000225;28;20033;-80
2023/04/13 10:15:26;;;;;;;19.92;3.20;;;;;;;11.17;100.00;99946.28;5033698;28;20068;-80
2023/04/13 10:18:20;;;;;;;22.98;4.00;;;;;;;11.29;100.00;99949.84;5033168;28;20105;-80
2023/04/13 10:20:47;;;;;;;31.70;4.97;;;;;;;11.68;100.00;99960.41;5014246;28;20037;-80
2023/04/13 10:23:14;;;;;;;19.88;3.42;;;;;;;11.96;100.00;99972.63;5032341;28;20504;-80
2023/04/13 10:26:02;;;;;;;18.45;3.13;;;;;;;12.27;100.00;99968.47;5032435;28;20491;-80
2023/04/13 10:28:29;;;;;;;11.88;2.90;;;;;;;12.30;100.00;99978.94;5050563;28;20068;-80
2023/04/13 10:30:55;;;;;;;19.75;4.03;;;;;;;12.29;100.00;99979.91;5000458;28;20427;-81
2023/04/13 10:33:22;;;;;;;19.02;3.03;;;;;;;12.71;100.00;99984.72;5016725;28;20048;-80
2023/04/13 10:36:00;;;;;;;18.52;3.63;;;;;;;12.88;100.00;99996.78;5033159;28;20405;-80
2023/04/13 10:38:26;;;;;;;19.20;3.25;;;;;;;12.74;100.00;100008.59;5031206;28;20070;-80
2023/04/13 10:40:53;;;;;;;11.77;2.60;;;;;;;12.70;100.00;99999.97;5016902;28;20041;-81
2023/04/13 10:43:29;;;;;;;18.60;3.25;;;;;;;12.32;100.00;100009.13;5013572;28;20040;-81
2023/04/13 10:46:05;;;;;;;16.20;2.70;;;;;;;12.46;100.00;100017.91;5012799;28;20061;-81
2023/04/13 10:48:31;;;;;;;13.70;3.75;;;;;;;12.44;100.00;100019.88;5012936;28;20068;-81
2023/04/13 10:50:58;;;;;;;13.05;2.60;;;;;;;12.12;100.00;100010.63;5021925;28;20041;-81
2023/04/13 10:53:27;;;;;;;18.13;3.10;;;;;;;12.01;100.00;100027.47;5016890;28;20697;-81
2023/04/13 10:55:54;;;;;;;16.50;2.42;;;;;;;12.36;100.00;100032.00;5031832;28;20048;-81
2023/04/13 10:58:21;;;;;;;14.98;2.97;;;;;;;12.29;100.00;100029.91;5016050;28;20043;-81
2023/04/13 11:00:50;;;;;;;9.13;2.15;;;;;;;12.23;100.00;100041.94;5031124;28;20139;-81
2023/04/13 11:03:19;;;;;;;12.07;2.70;;;;;;;12.32;100.00;100046.59;5031875;28;20068;-81
2023/04/13 11:05:47;;;;;;;18.45;2.70;;;;;;;12.25;100.00;100055.19;5046178;28;20160;-80
2023/04/13 11:08:20;;;;;;;14.85;2.95;;;;;;;12.04;100.00;100061.19;5039157;28;20263;-80
2023/04/13 11:10:54;;;;;;;15.75;2.75;;;;;;;12.01;100.00;100058.72;5062924;28;20562;-81
2023/04/13 11:13:24;;;;;;;11.75;2.33;;;;;;;12.13;100.00;100059.63;5019058;28;20108;-81
2023/04/13 11:15:50;;;;;;;14.63;2.35;;;;;;;12.30;100.00;100074.41;5036524;28;20036;-80
2023/04/13 11:18:27;;;;;;;11.35;2.70;;;;;;;12.37;100.00;100075.66;5035843;28;20048;-81
2023/04/13 11:20:53;;;;;;;12.25;3.00;;;;;;;12.29;100.00;100078.94;4998082;28;20056;-81
2023/04/13 11:23:22;;;;;;;13.85;2.63;;;;;;;12.39;100.00;100095.16;5015217;28;20033;-81
2023/04/13 11:26:03;;;;;;;20.40;3.33;;;;;;;12.16;100.00;100075.47;5035814;28;20091;-81
2023/04/13 11:28:40;;;;;;;17.75;2.72;;;;;;;12.05;100.00;100086.94;5053410;28;20044;-78
2023/04/13 11:31:07;;;;;;;14.85;2.63;;;;;;;11.87;100.00;100089.13;5019422;28;20132;-78
